sensor_id;sensor_type;location;lat;lon;timestamp;temperature;humidity
23063;DHT22;11699;43.704;10.430;2023-05-20T00:00:22;16.40;99.90
23063;DHT22;11699;43.704;10.430;2023-05-20T00:02:49;16.30;99.90
23063;DHT22;11699;43.704;10.430;2023-05-20T00:05:16;16.30;99.90
23063;DHT22;11699;43.704;10.430;2023-05-20T00:07:44;16.30;99.90
23063;DHT22;11699;43.704;10.430;2023-05-20T00:10:12;16.30;99.90
23063;DHT22;11699;43.704;10.430;2023-05-20T00:12:41;16.40;99.90
23063;DHT22;11699;43.704;10.430;2023-05-20T00:15:08;16.30;99.90
23063;DHT22;11699;43.704;10.430;2023-05-20T00:17:37;16.30;99.90
23063;DHT22;11699;43.704;10.430;2023-05-20T00:20:05;16.20;99.90
23063;DHT22;11699;43.704;10.430;2023-05-20T00:22:33;16.10;99.90
23063;DHT22;11699;43.704;10.430;2023-05-20T00:25:00;16.00;99.90
23063;DHT22;11699;43.704;10.430;2023-05-20T00:27:28;15.90;99.90
23063;DHT22;11699;43.704;10.430;2023-05-20T00:29:56;15.90;99.90
23063;DHT22;11699;43.704;10.430;2023-05-20T00:32:24;15.90;99.90
23063;DHT22;11699;43.704;10.430;2023-05-20T00:34:55;15.90;99.90
23063;DHT22;11699;43.704;10.430;2023-05-20T00:37:23;15.90;99.90
23063;DHT22;11699;43.704;10.430;2023-05-20T00:39:50;15.90;99.90
23063;DHT22;11699;43.704;10.430;2023-05-20T00:42:21;15.90;99.90
23063;DHT22;11699;43.704;10.430;2023-05-20T00:44:48;15.90;99.90
23063;DHT22;11699;43.704;10.430;2023-05-20T00:47:18;15.80;99.90
23063;DHT22;11699;43.704;10.430;2023-05-20T00:49:49;15.80;99.90
23063;DHT22;11699;43.704;10.430;2023-05-20T00:52:17;15.90;99.90
23063;DHT22;11699;43.704;10.430;2023-05-20T00:54:45;15.90;99.90
23063;DHT22;11699;43.704;10.430;2023-05-20T00:57:13;15.90;99.90
23063;DHT22;11699;43.704;10.430;2023-05-20T00:59:40;15.90;99.90
23063;DHT22;11699;43.704;10.430;2023-05-20T01:02:07;15.80;99.90
23063;DHT22;11699;43.704;10.430;2023-05-20T01:04:36;15.90;99.90
23063;DHT22;11699;43.704;10.430;2023-05-20T01:07:05;15.80;99.90
23063;DHT22;11699;43.704;10.430;2023-05-20T01:09:33;15.90;99.90
23063;DHT22;11699;43.704;10.430;2023-05-20T01:12:04;15.90;99.90
23063;DHT22;11699;43.704;10.430;2023-05-20T01:14:40;15.80;99.90
23063;DHT22;11699;43.704;10.430;2023-05-20T01:17:09;15.70;99.90
23063;DHT22;11699;43.704;10.430;2023-05-20T01:19:41;15.70;99.90
23063;DHT22;11699;43.704;10.430;2023-05-20T01:22:10;15.60;99.90
23063;DHT22;11699;43.704;10.430;2023-05-20T01:24:40;15.60;99.90
23063;DHT22;11699;43.704;10.430;2023-05-20T01:27:09;15.50;99.90
23063;DHT22;11699;43.704;10.430;2023-05-20T01:29:36;15.40;99.90
23063;DHT22;11699;43.704;10.430;2023-05-20T01:32:06;15.40;99.90
23063;DHT22;11699;43.704;10.430;2023-05-20T01:34:35;15.40;99.90
23063;DHT22;11699;43.704;10.430;2023-05-20T01:37:04;15.30;99.90
23063;DHT22;11699;43.704;10.430;2023-05-20T01:39:34;15.30;99.90
23063;DHT22;11699;43.704;10.430;2023-05-20T01:42:04;15.30;99.90
23063;DHT22;11699;43.704;10.430;2023-05-20T01:44:32;15.30;99.90
23063;DHT22;11699;43.704;10.430;2023-05-20T01:46:59;15.40;99.90
23063;DHT22;11699;43.704;10.430;2023-05-20T01:49:27;15.30;99.90
23063;DHT22;11699;43.704;10.430;2023-05-20T01:51:54;15.30;99.90
23063;DHT22;11699;43.704;10.430;2023-05-20T01:54:22;15.40;99.90
23063;DHT22;11699;43.704;10.430;2023-05-20T01:56:49;15.40;99.90
23063;DHT22;11699;43.704;10.430;2023-05-20T01:59:18;15.30;99.90
23063;DHT22;11699;43.704;10.430;2023-05-20T02:01:45;15.30;99.90
23063;DHT22;11699;43.704;10.430;2023-05-20T02:04:12;15.30;99.90
23063;DHT22;11699;43.704;10.430;2023-05-20T02:06:39;15.40;99.90
23063;DHT22;11699;43.704;10.430;2023-05-20T02:09:07;15.40;99.90
23063;DHT22;11699;43.704;10.430;2023-05-20T02:11:34;15.50;99.90
23063;DHT22;11699;43.704;10.430;2023-05-20T02:14:01;15.50;99.90
23063;DHT22;11699;43.704;10.430;2023-05-20T02:16:30;15.60;99.90
23063;DHT22;11699;43.704;10.430;2023-05-20T02:18:57;15.50;99.90
23063;DHT22;11699;43.704;10.430;2023-05-20T02:21:26;15.60;99.90
23063;DHT22;11699;43.704;10.430;2023-05-20T02:23:54;15.50;99.90
23063;DHT22;11699;43.704;10.430;2023-05-20T02:26:21;15.40;99.90
23063;DHT22;11699;43.704;10.430;2023-05-20T02:28:48;15.30;99.90
23063;DHT22;11699;43.704;10.430;2023-05-20T02:31:16;15.30;99.90
23063;DHT22;11699;43.704;10.430;2023-05-20T02:33:45;15.40;99.90
23063;DHT22;11699;43.704;10.430;2023-05-20T02:36:12;15.40;99.90
23063;DHT22;11699;43.704;10.430;2023-05-20T02:38:40;15.40;99.90
23063;DHT22;11699;43.704;10.430;2023-05-20T02:41:07;15.40;99.90
23063;DHT22;11699;43.704;10.430;2023-05-20T02:43:34;15.40;99.90
23063;DHT22;11699;43.704;10.430;2023-05-20T02:46:02;15.40;99.90
23063;DHT22;11699;43.704;10.430;2023-05-20T02:48:29;15.40;99.90
23063;DHT22;11699;43.704;10.430;2023-05-20T02:50:58;15.50;99.90
23063;DHT22;11699;43.704;10.430;2023-05-20T02:53:26;15.50;99.90
23063;DHT22;11699;43.704;10.430;2023-05-20T02:55:53;15.50;99.90
23063;DHT22;11699;43.704;10.430;2023-05-20T02:58:20;15.50;99.90
23063;DHT22;11699;43.704;10.430;2023-05-20T03:00:51;15.60;99.90
23063;DHT22;11699;43.704;10.430;2023-05-20T03:03:18;15.60;99.90
23063;DHT22;11699;43.704;10.430;2023-05-20T03:05:45;15.60;99.90
23063;DHT22;11699;43.704;10.430;2023-05-20T03:08:14;15.70;99.90
23063;DHT22;11699;43.704;10.430;2023-05-20T03:10:41;15.70;99.90
23063;DHT22;11699;43.704;10.430;2023-05-20T03:13:08;15.80;99.90
23063;DHT22;11699;43.704;10.430;2023-05-20T03:15:36;15.90;99.90
23063;DHT22;11699;43.704;10.430;2023-05-20T03:18:04;15.90;99.90
23063;DHT22;11699;43.704;10.430;2023-05-20T03:20:32;15.80;99.90
23063;DHT22;11699;43.704;10.430;2023-05-20T03:23:01;15.80;99.90
23063;DHT22;11699;43.704;10.430;2023-05-20T03:25:30;15.80;99.90
23063;DHT22;11699;43.704;10.430;2023-05-20T03:27:58;15.80;99.90
23063;DHT22;11699;43.704;10.430;2023-05-20T03:30:26;15.80;99.90
23063;DHT22;11699;43.704;10.430;2023-05-20T03:32:54;15.90;99.90
23063;DHT22;11699;43.704;10.430;2023-05-20T03:35:22;15.90;99.90
23063;DHT22;11699;43.704;10.430;2023-05-20T03:37:49;16.00;99.90
23063;DHT22;11699;43.704;10.430;2023-05-20T03:40:18;16.00;99.90
23063;DHT22;11699;43.704;10.430;2023-05-20T03:42:48;16.00;99.90
23063;DHT22;11699;43.704;10.430;2023-05-20T03:45:17;16.00;99.90
23063;DHT22;11699;43.704;10.430;2023-05-20T03:47:45;15.90;99.90
23063;DHT22;11699;43.704;10.430;2023-05-20T03:50:12;15.90;99.90
23063;DHT22;11699;43.704;10.430;2023-05-20T03:52:39;15.90;99.90
23063;DHT22;11699;43.704;10.430;2023-05-20T03:55:07;15.90;99.90
23063;DHT22;11699;43.704;10.430;2023-05-20T03:57:35;15.90;99.90
23063;DHT22;11699;43.704;10.430;2023-05-20T04:00:04;15.90;99.90
23063;DHT22;11699;43.704;10.430;2023-05-20T04:02:36;15.90;99.90
23063;DHT22;11699;43.704;10.430;2023-05-20T04:05:03;15.90;99.90
23063;DHT22;11699;43.704;10.430;2023-05-20T04:07:33;15.90;99.90
23063;DHT22;11699;43.704;10.430;2023-05-20T04:10:00;15.90;99.90
23063;DHT22;11699;43.704;10.430;2023-05-20T04:12:28;16.00;99.90
23063;DHT22;11699;43.704;10.430;2023-05-20T04:14:57;16.00;99.90
23063;DHT22;11699;43.704;10.430;2023-05-20T04:17:27;16.00;99.90
23063;DHT22;11699;43.704;10.430;2023-05-20T04:19:56;16.10;99.90
23063;DHT22;11699;43.704;10.430;2023-05-20T04:22:24;16.20;99.90
23063;DHT22;11699;43.704;10.430;2023-05-20T04:24:51;16.40;99.90
23063;DHT22;11699;43.704;10.430;2023-05-20T04:27:19;16.60;99.90
23063;DHT22;11699;43.704;10.430;2023-05-20T04:29:47;16.70;99.90
23063;DHT22;11699;43.704;10.430;2023-05-20T04:32:17;16.80;99.90
23063;DHT22;11699;43.704;10.430;2023-05-20T04:34:46;16.80;99.90
23063;DHT22;11699;43.704;10.430;2023-05-20T04:37:13;16.80;99.90
23063;DHT22;11699;43.704;10.430;2023-05-20T04:39:41;16.90;99.90
23063;DHT22;11699;43.704;10.430;2023-05-20T04:42:09;17.00;99.90
23063;DHT22;11699;43.704;10.430;2023-05-20T04:44:36;17.00;99.90
23063;DHT22;11699;43.704;10.430;2023-05-20T04:47:04;16.90;99.90
23063;DHT22;11699;43.704;10.430;2023-05-20T04:49:32;17.00;99.90
23063;DHT22;11699;43.704;10.430;2023-05-20T04:52:01;17.00;99.90
23063;DHT22;11699;43.704;10.430;2023-05-20T04:54:29;17.10;99.90
23063;DHT22;11699;43.704;10.430;2023-05-20T04:56:57;17.10;99.90
23063;DHT22;11699;43.704;10.430;2023-05-20T04:59:25;17.20;99.90
23063;DHT22;11699;43.704;10.430;2023-05-20T05:01:52;17.20;99.90
23063;DHT22;11699;43.704;10.430;2023-05-20T05:04:19;17.20;99.90
23063;DHT22;11699;43.704;10.430;2023-05-20T05:06:47;17.30;99.90
23063;DHT22;11699;43.704;10.430;2023-05-20T05:09:16;17.40;99.90
23063;DHT22;11699;43.704;10.430;2023-05-20T05:11:44;17.30;99.90
23063;DHT22;11699;43.704;10.430;2023-05-20T05:14:11;17.40;99.90
23063;DHT22;11699;43.704;10.430;2023-05-20T05:16:38;17.40;99.90
23063;DHT22;11699;43.704;10.430;2023-05-20T05:19:05;17.40;99.90
23063;DHT22;11699;43.704;10.430;2023-05-20T05:21:33;17.40;99.90
23063;DHT22;11699;43.704;10.430;2023-05-20T05:24:01;17.40;99.90
23063;DHT22;11699;43.704;10.430;2023-05-20T05:26:29;17.40;99.90
23063;DHT22;11699;43.704;10.430;2023-05-20T05:28:57;17.30;99.90
23063;DHT22;11699;43.704;10.430;2023-05-20T05:31:24;17.40;99.90
23063;DHT22;11699;43.704;10.430;2023-05-20T05:33:51;17.40;99.90
23063;DHT22;11699;43.704;10.430;2023-05-20T05:36:19;17.40;99.90
23063;DHT22;11699;43.704;10.430;2023-05-20T05:38:46;17.40;99.90
23063;DHT22;11699;43.704;10.430;2023-05-20T05:41:13;17.40;99.90
23063;DHT22;11699;43.704;10.430;2023-05-20T05:43:42;17.40;99.90
23063;DHT22;11699;43.704;10.430;2023-05-20T05:46:09;17.50;99.90
23063;DHT22;11699;43.704;10.430;2023-05-20T05:48:36;17.50;99.90
23063;DHT22;11699;43.704;10.430;2023-05-20T05:51:04;17.50;99.90
23063;DHT22;11699;43.704;10.430;2023-05-20T05:53:31;17.50;99.90
23063;DHT22;11699;43.704;10.430;2023-05-20T05:55:58;17.50;99.90
23063;DHT22;11699;43.704;10.430;2023-05-20T05:58:25;17.60;99.90
23063;DHT22;11699;43.704;10.430;2023-05-20T06:00:54;17.60;99.90
23063;DHT22;11699;43.704;10.430;2023-05-20T06:03:22;17.60;99.90
23063;DHT22;11699;43.704;10.430;2023-05-20T06:05:49;17.60;99.90
23063;DHT22;11699;43.704;10.430;2023-05-20T06:08:17;17.60;99.90
23063;DHT22;11699;43.704;10.430;2023-05-20T06:10:46;17.70;99.90
23063;DHT22;11699;43.704;10.430;2023-05-20T06:13:14;17.60;99.90
23063;DHT22;11699;43.704;10.430;2023-05-20T06:15:42;17.60;99.90
23063;DHT22;11699;43.704;10.430;2023-05-20T06:18:12;17.60;99.90
23063;DHT22;11699;43.704;10.430;2023-05-20T06:20:39;17.50;99.90
23063;DHT22;11699;43.704;10.430;2023-05-20T06:23:06;17.50;99.90
23063;DHT22;11699;43.704;10.430;2023-05-20T06:25:34;17.50;99.90
23063;DHT22;11699;43.704;10.430;2023-05-20T06:28:01;17.50;99.90
23063;DHT22;11699;43.704;10.430;2023-05-20T06:30:28;17.40;99.90
23063;DHT22;11699;43.704;10.430;2023-05-20T06:32:55;17.40;99.90
23063;DHT22;11699;43.704;10.430;2023-05-20T06:35:24;17.40;99.90
23063;DHT22;11699;43.704;10.430;2023-05-20T06:37:51;17.40;99.90
23063;DHT22;11699;43.704;10.430;2023-05-20T06:40:20;17.40;99.90
23063;DHT22;11699;43.704;10.430;2023-05-20T06:42:47;17.50;99.90
23063;DHT22;11699;43.704;10.430;2023-05-20T06:45:14;17.50;99.90
23063;DHT22;11699;43.704;10.430;2023-05-20T06:47:41;17.50;99.90
23063;DHT22;11699;43.704;10.430;2023-05-20T06:50:09;17.50;99.90
23063;DHT22;11699;43.704;10.430;2023-05-20T06:52:38;17.40;99.90
23063;DHT22;11699;43.704;10.430;2023-05-20T06:55:06;17.40;99.90
23063;DHT22;11699;43.704;10.430;2023-05-20T06:57:33;17.40;99.90
23063;DHT22;11699;43.704;10.430;2023-05-20T07:00:01;17.30;99.90
23063;DHT22;11699;43.704;10.430;2023-05-20T07:02:28;17.40;99.90
23063;DHT22;11699;43.704;10.430;2023-05-20T07:04:56;17.30;99.90
23063;DHT22;11699;43.704;10.430;2023-05-20T07:07:23;17.30;99.90
23063;DHT22;11699;43.704;10.430;2023-05-20T07:09:53;17.30;99.90
23063;DHT22;11699;43.704;10.430;2023-05-20T07:12:21;17.30;99.90
23063;DHT22;11699;43.704;10.430;2023-05-20T07:14:48;17.30;99.90
23063;DHT22;11699;43.704;10.430;2023-05-20T07:17:15;17.20;99.90
23063;DHT22;11699;43.704;10.430;2023-05-20T07:19:43;17.20;99.90
23063;DHT22;11699;43.704;10.430;2023-05-20T07:22:11;17.20;99.90
23063;DHT22;11699;43.704;10.430;2023-05-20T07:24:38;17.20;99.90
23063;DHT22;11699;43.704;10.430;2023-05-20T07:27:07;17.20;99.90
23063;DHT22;11699;43.704;10.430;2023-05-20T07:29:34;17.40;99.90
23063;DHT22;11699;43.704;10.430;2023-05-20T07:32:02;17.50;99.90
23063;DHT22;11699;43.704;10.430;2023-05-20T07:34:30;17.70;99.90
23063;DHT22;11699;43.704;10.430;2023-05-20T07:36:57;17.70;99.90
23063;DHT22;11699;43.704;10.430;2023-05-20T07:39:25;17.70;99.90
23063;DHT22;11699;43.704;10.430;2023-05-20T07:41:53;17.80;99.90
23063;DHT22;11699;43.704;10.430;2023-05-20T07:44:21;17.60;99.90
23063;DHT22;11699;43.704;10.430;2023-05-20T07:46:49;17.70;99.90
23063;DHT22;11699;43.704;10.430;2023-05-20T07:49:16;17.80;99.90
23063;DHT22;11699;43.704;10.430;2023-05-20T07:51:43;17.80;99.90
23063;DHT22;11699;43.704;10.430;2023-05-20T07:54:11;17.80;99.90
23063;DHT22;11699;43.704;10.430;2023-05-20T07:56:40;17.90;99.90
23063;DHT22;11699;43.704;10.430;2023-05-20T07:59:07;17.90;99.90
23063;DHT22;11699;43.704;10.430;2023-05-20T08:01:36;18.00;99.90
23063;DHT22;11699;43.704;10.430;2023-05-20T08:04:03;18.10;99.90
23063;DHT22;11699;43.704;10.430;2023-05-20T08:06:31;18.10;99.90
23063;DHT22;11699;43.704;10.430;2023-05-20T08:09:00;18.10;99.90
23063;DHT22;11699;43.704;10.430;2023-05-20T08:11:27;18.20;99.90
23063;DHT22;11699;43.704;10.430;2023-05-20T08:13:54;18.20;99.90
23063;DHT22;11699;43.704;10.430;2023-05-20T08:16:22;18.30;99.90
23063;DHT22;11699;43.704;10.430;2023-05-20T08:18:50;18.40;99.90
23063;DHT22;11699;43.704;10.430;2023-05-20T08:21:18;18.40;99.90
23063;DHT22;11699;43.704;10.430;2023-05-20T08:23:45;18.50;99.90
23063;DHT22;11699;43.704;10.430;2023-05-20T08:26:12;18.60;99.90
23063;DHT22;11699;43.704;10.430;2023-05-20T08:28:39;18.60;99.90
23063;DHT22;11699;43.704;10.430;2023-05-20T08:31:07;18.70;99.90
23063;DHT22;11699;43.704;10.430;2023-05-20T08:33:34;18.80;99.90
23063;DHT22;11699;43.704;10.430;2023-05-20T08:36:03;18.90;99.90
23063;DHT22;11699;43.704;10.430;2023-05-20T08:38:31;19.10;99.90
23063;DHT22;11699;43.704;10.430;2023-05-20T08:40:58;19.40;99.90
23063;DHT22;11699;43.704;10.430;2023-05-20T08:43:26;19.50;99.90
23063;DHT22;11699;43.704;10.430;2023-05-20T08:45:55;19.50;99.90
23063;DHT22;11699;43.704;10.430;2023-05-20T08:48:25;19.50;99.90
23063;DHT22;11699;43.704;10.430;2023-05-20T08:50:52;19.40;99.90
23063;DHT22;11699;43.704;10.430;2023-05-20T08:53:24;19.40;99.90
23063;DHT22;11699;43.704;10.430;2023-05-20T08:55:53;19.40;99.90
23063;DHT22;11699;43.704;10.430;2023-05-20T08:58:22;19.40;99.90
23063;DHT22;11699;43.704;10.430;2023-05-20T09:00:50;19.40;99.90
23063;DHT22;11699;43.704;10.430;2023-05-20T09:03:18;19.40;99.90
23063;DHT22;11699;43.704;10.430;2023-05-20T09:05:46;19.40;99.90
23063;DHT22;11699;43.704;10.430;2023-05-20T09:08:13;19.50;99.90
23063;DHT22;11699;43.704;10.430;2023-05-20T09:10:42;19.50;99.90
23063;DHT22;11699;43.704;10.430;2023-05-20T09:13:10;19.50;99.90
23063;DHT22;11699;43.704;10.430;2023-05-20T09:15:37;19.60;99.90
23063;DHT22;11699;43.704;10.430;2023-05-20T09:18:06;19.60;99.90
23063;DHT22;11699;43.704;10.430;2023-05-20T09:20:35;19.60;99.90
23063;DHT22;11699;43.704;10.430;2023-05-20T09:23:05;19.60;99.90
23063;DHT22;11699;43.704;10.430;2023-05-20T09:25:33;19.60;99.90
23063;DHT22;11699;43.704;10.430;2023-05-20T09:28:03;19.50;99.90
23063;DHT22;11699;43.704;10.430;2023-05-20T09:30:31;19.50;99.90
23063;DHT22;11699;43.704;10.430;2023-05-20T09:33:00;19.50;99.90
23063;DHT22;11699;43.704;10.430;2023-05-20T09:35:29;19.30;99.90
23063;DHT22;11699;43.704;10.430;2023-05-20T09:37:57;19.30;99.90
23063;DHT22;11699;43.704;10.430;2023-05-20T09:40:26;19.20;99.90
23063;DHT22;11699;43.704;10.430;2023-05-20T09:42:56;19.20;99.90
23063;DHT22;11699;43.704;10.430;2023-05-20T09:45:24;19.30;99.90
23063;DHT22;11699;43.704;10.430;2023-05-20T09:47:53;19.40;99.90
23063;DHT22;11699;43.704;10.430;2023-05-20T09:50:23;19.40;99.90
23063;DHT22;11699;43.704;10.430;2023-05-20T09:52:51;19.50;99.90
23063;DHT22;11699;43.704;10.430;2023-05-20T09:55:21;19.50;99.90
23063;DHT22;11699;43.704;10.430;2023-05-20T09:57:49;19.60;99.90
23063;DHT22;11699;43.704;10.430;2023-05-20T10:00:16;19.80;99.90
23063;DHT22;11699;43.704;10.430;2023-05-20T10:02:48;19.80;99.90
23063;DHT22;11699;43.704;10.430;2023-05-20T10:05:19;19.90;99.90
23063;DHT22;11699;43.704;10.430;2023-05-20T10:10:53;19.90;99.90
23063;DHT22;11699;43.704;10.430;2023-05-20T10:13:37;20.00;99.90
23063;DHT22;11699;43.704;10.430;2023-05-20T10:16:16;20.20;99.90
23063;DHT22;11699;43.704;10.430;2023-05-20T10:18:58;20.30;99.90
23063;DHT22;11699;43.704;10.430;2023-05-20T10:21:27;20.20;99.90
23063;DHT22;11699;43.704;10.430;2023-05-20T10:24:05;20.40;99.90
23063;DHT22;11699;43.704;10.430;2023-05-20T10:26:34;20.70;99.90
23063;DHT22;11699;43.704;10.430;2023-05-20T10:29:14;20.90;99.90
23063;DHT22;11699;43.704;10.430;2023-05-20T10:31:44;21.00;99.90
23063;DHT22;11699;43.704;10.430;2023-05-20T10:34:15;21.10;99.90
23063;DHT22;11699;43.704;10.430;2023-05-20T10:36:45;21.20;99.90
23063;DHT22;11699;43.704;10.430;2023-05-20T10:39:14;21.00;99.90
23063;DHT22;11699;43.704;10.430;2023-05-20T10:41:43;20.90;99.90
23063;DHT22;11699;43.704;10.430;2023-05-20T10:44:10;21.00;99.90
23063;DHT22;11699;43.704;10.430;2023-05-20T10:46:38;20.90;99.90
23063;DHT22;11699;43.704;10.430;2023-05-20T10:49:17;20.70;99.90
23063;DHT22;11699;43.704;10.430;2023-05-20T10:51:46;20.60;99.90
23063;DHT22;11699;43.704;10.430;2023-05-20T10:54:14;20.50;99.90
23063;DHT22;11699;43.704;10.430;2023-05-20T10:56:50;20.40;99.90
23063;DHT22;11699;43.704;10.430;2023-05-20T10:59:18;20.30;99.90
23063;DHT22;11699;43.704;10.430;2023-05-20T11:01:46;20.40;99.90
23063;DHT22;11699;43.704;10.430;2023-05-20T11:04:15;20.50;99.90
23063;DHT22;11699;43.704;10.430;2023-05-20T11:06:50;20.50;99.90
23063;DHT22;11699;43.704;10.430;2023-05-20T11:09:18;20.50;99.90
23063;DHT22;11699;43.704;10.430;2023-05-20T11:11:46;20.50;99.90
23063;DHT22;11699;43.704;10.430;2023-05-20T11:14:13;20.60;99.90
23063;DHT22;11699;43.704;10.430;2023-05-20T11:16:42;20.60;99.90
23063;DHT22;11699;43.704;10.430;2023-05-20T11:19:14;20.50;99.90
23063;DHT22;11699;43.704;10.430;2023-05-20T11:21:42;20.40;99.90
23063;DHT22;11699;43.704;10.430;2023-05-20T11:24:11;20.30;99.90
23063;DHT22;11699;43.704;10.430;2023-05-20T11:26:38;20.20;99.90
23063;DHT22;11699;43.704;10.430;2023-05-20T11:29:06;20.10;99.90
23063;DHT22;11699;43.704;10.430;2023-05-20T11:31:33;20.10;99.90
23063;DHT22;11699;43.704;10.430;2023-05-20T11:34:03;20.10;99.90
23063;DHT22;11699;43.704;10.430;2023-05-20T11:36:31;20.20;99.90
23063;DHT22;11699;43.704;10.430;2023-05-20T11:38:58;20.40;99.90
23063;DHT22;11699;43.704;10.430;2023-05-20T11:41:28;20.60;99.90
23063;DHT22;11699;43.704;10.430;2023-05-20T11:43:56;20.70;99.90
23063;DHT22;11699;43.704;10.430;2023-05-20T11:46:24;20.70;99.90
23063;DHT22;11699;43.704;10.430;2023-05-20T11:48:52;20.70;99.90
23063;DHT22;11699;43.704;10.430;2023-05-20T11:51:22;20.70;99.90
23063;DHT22;11699;43.704;10.430;2023-05-20T11:53:51;20.70;99.90
23063;DHT22;11699;43.704;10.430;2023-05-20T11:56:19;20.80;99.90
23063;DHT22;11699;43.704;10.430;2023-05-20T11:58:48;20.90;99.90
23063;DHT22;11699;43.704;10.430;2023-05-20T12:01:16;20.90;99.90
23063;DHT22;11699;43.704;10.430;2023-05-20T12:03:43;21.10;99.90
23063;DHT22;11699;43.704;10.430;2023-05-20T12:06:11;21.20;99.90
23063;DHT22;11699;43.704;10.430;2023-05-20T12:08:39;21.50;99.90
23063;DHT22;11699;43.704;10.430;2023-05-20T12:11:06;21.50;99.90
23063;DHT22;11699;43.704;10.430;2023-05-20T12:13:33;21.50;99.90
23063;DHT22;11699;43.704;10.430;2023-05-20T12:16:02;21.40;99.90
23063;DHT22;11699;43.704;10.430;2023-05-20T12:18:30;21.20;99.90
23063;DHT22;11699;43.704;10.430;2023-05-20T12:20:58;20.90;99.90
23063;DHT22;11699;43.704;10.430;2023-05-20T12:23:25;20.70;99.90
23063;DHT22;11699;43.704;10.430;2023-05-20T12:25:54;20.50;99.90
23063;DHT22;11699;43.704;10.430;2023-05-20T12:28:21;20.30;99.90
23063;DHT22;11699;43.704;10.430;2023-05-20T12:30:48;20.20;99.90
23063;DHT22;11699;43.704;10.430;2023-05-20T12:33:17;20.20;99.90
23063;DHT22;11699;43.704;10.430;2023-05-20T12:35:45;20.10;99.90
23063;DHT22;11699;43.704;10.430;2023-05-20T12:38:13;20.10;99.90
23063;DHT22;11699;43.704;10.430;2023-05-20T12:40:40;20.10;99.90
23063;DHT22;11699;43.704;10.430;2023-05-20T12:43:08;20.00;99.90
23063;DHT22;11699;43.704;10.430;2023-05-20T12:45:35;20.00;99.90
23063;DHT22;11699;43.704;10.430;2023-05-20T12:48:03;20.00;99.90
23063;DHT22;11699;43.704;10.430;2023-05-20T12:50:33;20.10;99.90
23063;DHT22;11699;43.704;10.430;2023-05-20T12:53:00;20.10;99.90
23063;DHT22;11699;43.704;10.430;2023-05-20T12:55:27;20.10;99.90
23063;DHT22;11699;43.704;10.430;2023-05-20T12:57:55;20.30;99.90
23063;DHT22;11699;43.704;10.430;2023-05-20T13:00:22;20.40;99.90
23063;DHT22;11699;43.704;10.430;2023-05-20T13:02:50;20.50;99.90
23063;DHT22;11699;43.704;10.430;2023-05-20T13:05:18;20.70;99.90
23063;DHT22;11699;43.704;10.430;2023-05-20T13:07:48;20.80;99.90
23063;DHT22;11699;43.704;10.430;2023-05-20T13:10:15;21.00;99.90
23063;DHT22;11699;43.704;10.430;2023-05-20T13:12:43;21.00;99.90
23063;DHT22;11699;43.704;10.430;2023-05-20T13:15:11;21.00;99.90
23063;DHT22;11699;43.704;10.430;2023-05-20T13:17:39;20.90;99.90
23063;DHT22;11699;43.704;10.430;2023-05-20T13:20:08;20.80;99.90
23063;DHT22;11699;43.704;10.430;2023-05-20T13:22:35;20.70;99.90
23063;DHT22;11699;43.704;10.430;2023-05-20T13:25:05;20.70;99.90
23063;DHT22;11699;43.704;10.430;2023-05-20T13:27:32;20.60;99.90
23063;DHT22;11699;43.704;10.430;2023-05-20T13:30:00;20.60;99.90
23063;DHT22;11699;43.704;10.430;2023-05-20T13:32:27;20.50;99.90
23063;DHT22;11699;43.704;10.430;2023-05-20T13:34:54;20.40;99.90
23063;DHT22;11699;43.704;10.430;2023-05-20T13:37:24;20.40;99.90
23063;DHT22;11699;43.704;10.430;2023-05-20T13:39:52;20.40;99.90
23063;DHT22;11699;43.704;10.430;2023-05-20T13:42:20;20.30;99.90
23063;DHT22;11699;43.704;10.430;2023-05-20T13:44:48;20.30;99.90
23063;DHT22;11699;43.704;10.430;2023-05-20T13:47:16;20.20;99.90
23063;DHT22;11699;43.704;10.430;2023-05-20T13:49:43;20.20;99.90
23063;DHT22;11699;43.704;10.430;2023-05-20T13:52:10;20.20;99.90
23063;DHT22;11699;43.704;10.430;2023-05-20T13:54:37;20.20;99.90
23063;DHT22;11699;43.704;10.430;2023-05-20T13:57:05;20.20;99.90
23063;DHT22;11699;43.704;10.430;2023-05-20T13:59:34;20.20;99.90
23063;DHT22;11699;43.704;10.430;2023-05-20T14:02:02;20.30;99.90
23063;DHT22;11699;43.704;10.430;2023-05-20T14:04:29;20.30;99.90
23063;DHT22;11699;43.704;10.430;2023-05-20T14:07:01;20.40;99.90
23063;DHT22;11699;43.704;10.430;2023-05-20T14:09:29;20.40;99.90
23063;DHT22;11699;43.704;10.430;2023-05-20T14:11:56;20.40;99.90
23063;DHT22;11699;43.704;10.430;2023-05-20T14:14:23;20.50;99.90
23063;DHT22;11699;43.704;10.430;2023-05-20T14:16:52;20.50;99.90
23063;DHT22;11699;43.704;10.430;2023-05-20T14:19:20;20.50;99.90
23063;DHT22;11699;43.704;10.430;2023-05-20T14:21:47;20.50;99.90
23063;DHT22;11699;43.704;10.430;2023-05-20T14:24:14;20.50;99.90
23063;DHT22;11699;43.704;10.430;2023-05-20T14:26:41;20.50;99.90
23063;DHT22;11699;43.704;10.430;2023-05-20T14:29:08;20.50;99.90
23063;DHT22;11699;43.704;10.430;2023-05-20T14:31:36;20.50;99.90
23063;DHT22;11699;43.704;10.430;2023-05-20T14:34:05;20.40;99.90
23063;DHT22;11699;43.704;10.430;2023-05-20T14:36:33;20.40;99.90
23063;DHT22;11699;43.704;10.430;2023-05-20T14:39:00;20.40;99.90
23063;DHT22;11699;43.704;10.430;2023-05-20T14:41:27;20.30;99.90
23063;DHT22;11699;43.704;10.430;2023-05-20T14:43:55;20.20;99.90
23063;DHT22;11699;43.704;10.430;2023-05-20T14:46:22;20.20;99.90
23063;DHT22;11699;43.704;10.430;2023-05-20T14:48:49;20.20;99.90
23063;DHT22;11699;43.704;10.430;2023-05-20T14:51:18;20.20;99.90
23063;DHT22;11699;43.704;10.430;2023-05-20T14:53:46;20.20;99.90
23063;DHT22;11699;43.704;10.430;2023-05-20T14:56:13;20.10;99.90
23063;DHT22;11699;43.704;10.430;2023-05-20T14:58:40;20.10;99.90
23063;DHT22;11699;43.704;10.430;2023-05-20T15:01:07;20.10;99.90
23063;DHT22;11699;43.704;10.430;2023-05-20T15:03:35;20.10;99.90
23063;DHT22;11699;43.704;10.430;2023-05-20T15:06:02;20.10;99.90
23063;DHT22;11699;43.704;10.430;2023-05-20T15:08:31;20.10;99.90
23063;DHT22;11699;43.704;10.430;2023-05-20T15:10:58;20.10;99.90
23063;DHT22;11699;43.704;10.430;2023-05-20T15:13:26;20.00;99.90
23063;DHT22;11699;43.704;10.430;2023-05-20T15:15:53;20.00;99.90
23063;DHT22;11699;43.704;10.430;2023-05-20T15:18:20;20.00;99.90
23063;DHT22;11699;43.704;10.430;2023-05-20T15:20:48;20.00;99.90
23063;DHT22;11699;43.704;10.430;2023-05-20T15:23:15;20.00;99.90